10 GIRO DELL'UMBRIA A TAPPE

3^ TAPPA - Torricella del lago (Pg) - km 11

14/04/2012

 

Ordine d'arrivo generale maschile - km 11
Pos.  Pett. Cognome Nome Anno Societa' Categ. Tempo  Media
1 1 Conti Piergiorgio 70 Atl Avis Pg MM 40 0:39:04 3,33
2 10 Pontani Luigi 64 Atl Avis Pg MM 45 0:39:20 3,35
3 2 Dall'Ara  Michele 76 Atl. Pavese MM 35 0:39:57 3,38
4 5 Montioni  Cesare 81 Atl. Capanne AM.TM 0:40:00 3,38
5 3 Baldelli Giuseppe 68 Atl Avis Pg MM 40 0:41:28 3,46
6 22 Mangili Manuel 79 Atl. Pavese AM.TM 0:41:38 3,47
7 11 Ametrano  Alessio 83 Pod. Corciano AM.TM 0:41:56 3,49
8 57 Toni Michele 65 G.S. Gabbi MM 45 0:42:26 3,51
9 24 Salari Michele 75 Pod. Avis Fabriano MM 35 0:42:41 3,53
10 9 Morani Evian 72 Assisi Runners MM 40 0:42:47 3,53
11 75 Pallotta Roberto 62 Winner Foligno MM 50 0:43:04 3,55
12 13 Curcio Antonio 80 Atl. Pavese AM.TM 0:43:21 3,56
13 6 Facciolo Valerio 68 Atl. Pavese MM 40 0:43:26 3,57
14 37 Sfondalmondo Massimiliano 71 Atl Avis Pg MM 40 0:43:31 3,57
15 56 Tini  Fabrizio 67 Atl. Capanne MM 45 0:43:35 3,58
16 8 Bordoni  Paolo 63 Dream Runners PG MM 45 0:43:42 3,58
17 74 Palanca Annibale 58 C.d.p. Trb Group MM 50 0:43:49 3,59
18 71 Mattioli  Claudio 59 Atl Avis Pg MM 50 0:43:50 3,59
19 68 Giorgetti  Claudio 60 Amatori Podistica Terni MM 50 0:43:52 3,59
20 55 Ranieri  Giovanni 65 Olympic Lama MM 45 0:43:52 3,59
21 47 Casalini Sergio 84 Winner Foligno AM.TM 0:43:54 3,59
22 41 Bastianini  Federico 66 Dimarco Sport (VT) MM 45 0:44:03 4,00
23 7 Tortoioli  Marco 72 Atl Avis Pg MM 40 0:44:09 4,01
24 34 Pirilli Andrea 69 Dream Runners PG MM 40 0:44:22 4,02
25 12 Angelucci Gabriele 86 Winner Foligno AM.TM 0:44:24 4,02
26 26 Torti Mirco 75 Winner Foligno MM 35 0:44:30 4,03
27 42 Bazzucchi Mauro 65 Aspa Bastia MM 45 0:44:44 4,04
28 102 Masiero Orazio 52 Voltan Mestre MM 60 0:44:48 4,04
29 86 D'Amico Giovanni 56 C.d.p. Trb Group MM 55 0:45:17 4,07
30 20 Caporaletti Simone 76 Avis Uispsport Todi MM 35 0:45:51 4,10
31 54 Polticchia  Roberto 64 C.d.p. Trb Group MM 45 0:46:02 4,11
32 67 Giacomelli Matteo 86 ASD Avis Terni AM.TM 0:46:10 4,12
33 36 Ridolfi  Massimiliano 70 Assisi Runners MM 40 0:46:45 4,15
34 40 Arcelli  Fabrizio 64 Atl Avis Pg MM 45 0:46:51 4,16
35 35 Procacci Nadio 70 Marthon Castello MM 40 0:47:24 4,19
36 61 Bucari Fazio 61 Pod. Carsulae MM 50 0:47:25 4,19
37 109 Valente  Raffaello 52 G.S. Alpini (VI) MM 60 0:47:27 4,19
38 101 Mangialasche Alfonso 51 C.d.p. Trb Group MM 60 0:47:29 4,19
39 43 Binacci Massimo 65 Atl Avis Pg MM 45 0:47:30 4,19
40 88 Frenguelli Franco 56 Atl Avis Pg MM 55 0:47:37 4,20
41 89 Manetta Sergio 55 Atl. Capanne MM 55 0:47:38 4,20
42 33 Muti Massimiliano 68 Satrini Group Trevi MM 40 0:47:40 4,20
43 31 Lazzarini Francesco 69 Assisi Runners MM 40 0:48:29 4,24
44 44 Bosco Sabino 66 Assisi Runners MM 45 0:48:40 4,25
45 18 Brunelli  Alessandro 78 Dream Runners PG AM.TM 0:48:40 4,25
46 64 Covarelli Mauro 59 Atl Avis Pg MM 50 0:48:47 4,26
47 17 Uruci Ermal 84 Pod. Corciano AM.TM 0:48:59 4,27
48 27 Antonini G.Luca 72 Assisi Runners MM 40 0:49:05 4,28
49 87 Di  Matteo  Mario 55 Atl. Capanne MM 55 0:49:35 4,30
50 94 Porchetti Fabrizio 56 POD. Mirycae (TR) MM 55 0:49:42 4,31
51 53 Pastore Lorenzo 67 Winner Foligno MM 45 0:49:46 4,31
52 70 Mariani Massimo 62 Lino Spagnoli MM 50 0:49:54 4,32
53 91 Natalicchi  Cesare 56 Dream Runners PG MM 55 0:49:56 4,32
54 97 Tortorella  Carlo 55 C.d.p. Trb Group MM 55 0:49:58 4,33
55 63 Canapari Francesco 58 Atl Avis Pg MM 50 0:49:59 4,33
56 23 Saccoccini  Marco 77 Atl. Il Colle MM 35 0:50:01 4,33
57 83 Castraberte  Fausto  55 Dream Runners PG MM 55 0:50:03 4,33
58 85 Dal Pra Riccardo 53 G.S. Alpini (VI) MM 55 0:50:09 4,34
59 95 Righini Solerte 54 D.L.F. Rimini MM 55 0:50:11 4,34
60 38 Vecchini  Sergio 70 Marathon Castello MM 40 0:50:13 4,34
61 104 Passeri Luciano 51 Atl. Il Colle MM 60 0:50:17 4,34
62 76 Perin Tiziano 58 Idealdoor S.Biagio (TV) MM 50 0:50:20 4,35
63 52 Paoloni Piero 64 Atl. Capanne MM 45 0:50:44 4,37
64 58 Bagna Mirko Mario 59 Pol. S.Orso (Aosta) MM 50 0:50:50 4,37
65 48 Chessa  Giovanni 65 Atl. Capanne MM 45 0:51:07 4,39
66 15 Felici Dimitri 81 Atl. Montefiascone (VT) AM.TM 0:51:10 4,39
67 49 Goracci Marco 66 Volumnia Sericap MM 45 0:51:12 4,39
68 14 Fastellini  Paolo 78 Dream Runners PG AM.TM 0:51:13 4,39
69 45 Capodimonti Fausto 67 Winner Foligno MM 45 0:51:15 4,40
70 84 Corso Vittorino 53 G.S. Alpini (VI) MM 55 0:52:02 4,44
71 78 Valente Giuseppe Nicola 60 Avisincorsa Conversano (BA) MM 50 0:52:23 4,46
72 51 Menconi Antonello 67 C.d.p. Trb Group MM 45 0:52:41 4,47
73 105 Puccio  Francesco 49 Atl. Pavese MM 60 0:52:58 4,49
74 93 Pierelli Vinicio 56 Atl. Taino MM 55 0:53:35 4,52
75 90 Mazzoli Andrea 55 Lolli Auto (BO) MM 55 0:54:26 4,57
76 30 Falaschi  Daniele 71 C.d.p. Trb Group MM 40 0:54:50 4,59
77 28 Cucchia  Gianni 71 Volumnia Sericap MM 40 0:54:53 4,59
78 115 Ministro Giancarlo 43 Amatori Podistica Terni MM 65 0:55:03 5,00
79 80 Bonafé  Corrado 53 Castenaso (BO) MM 55 0:55:10 5,01
80 112 Gasparetto Luciano 47 G.P. Montebelluna MM 65 0:55:14 5,01
81 32 Meini Giuseppe 68 Avis San Sepolcro MM 40 0:55:15 5,01
82 65 Dal Santo  Erminio 58 G.S. Alpini (VI) MM 50 0:55:30 5,03
83 46 Cardaioli  Danilo 63 Atl. Il Colle MM 45 0:55:38 5,03
84 66 Franco Dario 58 G.S. Pomaretto MM 50 0:56:10 5,06
85 98 Zorzanello Giovanni 55 G.S. Mombocar (VR) MM 55 0:56:24 5,08
86 114 Mancinelli Sergio 45 Assi Giglio Rosso (Fi) MM 65 0:56:40 5,09
87 121 Nobili  Pietro 40 G.P. Garlaschese (PV) MM 70 0:56:41 5,09
88 122 Ricci  Francesco 39 Volumnia Sericap MM 70 0:56:42 5,09
89 21 Giubilei Riccardo 73 Uisp Avis Terni MM 35 0:57:13 5,12
90 29 De Rosa Raffaele 72 Atl. Capanne MM 40 0:57:14 5,12
91 92 Negroni Sergio 53 Winner Foligno MM 55 0:57:40 5,15
92 79 Verdinelli Fabio 58 Winner Foligno MM 50 0:57:46 5,15
93 82 Bortolan  Renzo 53 Idealdoor S.Biagio (TV) MM 55 0:58:10 5,17
94 108 Strada Mario 52 G.P. Garlaschese (PV) MM 60 0:59:15 5,23
95 96 Rondini Stefano 54 Atl Avis Pg MM 55 0:59:36 5,25
96 113 Inzerillo Giovanni 46 Atl. Intesa Milano MM 65 0:59:45 5,26
97 60 Bottoloni  Raffaele 60 Volumnia Sericap MM 50 0:59:55 5,27
98 99 Baldassarri Luciano 48 UISP Faenza MM 60 1:00:28 5,30
99 81 Boncio Maurizio 56 Aspa Bastia MM 55 1:01:16 5,34
100 77 Piccini Franco 58 Atl. Capanne MM 50 1:01:16 5,34
101 100 Gennari Giuliano 49 Amatori Podistica Terni MM 60 1:01:18 5,34
102 50 Laoreti Fabio 66 Amatori Podistica Terni MM 45 1:01:19 5,34
103 120 Moroni Bruno 42 Atl. Capanne MM 70 1:01:53 5,38
104 124 Airoli Silvano 50 Atl. Pavese MM 60 1:02:22 5,40
105 110 Ceppi Agostino 44 Winner Foligno MM 65 1:04:00 5,49
106 69 Grillo Giacomo 58 Amatori Podistica Terni MM 50 1:04:00 5,49
107 62 Camerucci Tiberio 60 Winner Foligno MM 50 1:04:02 5,49
108 106 Rizzo Giorgio 49 Assindustria Rovigo MM 60 1:04:07 5,50
109 116 Moracci  Guerrino 46 Atl. Intesa Milano MM 65 1:05:54 5,59
110 73 Orioli Sergio 58 Atl. Capanne MM 50 1:05:54 5,59
111 123 Brunetti  Benito 34 Volumnia Sericap MM 75 1:19:24 7,13
112 119 Ciampi  Vittorio 40 C.d.p. Trb Group MM 70 1:19:24 7,13
113 111 Cucchetti  Fabrizio 46 Atl. Pavese MM 65 1:19:24 7,13
114 39 Vettese Marcello 72 Amatori Podistica Terni MM 40 1:19:27 7,13
  19 Bartoccini Paolo 75 Volumnia Sericap MM 35 NP
  72 Micanti  G. Carlo 62 Dream Runners PG MM 50 NP
  117 Ortica Adriano 46 Atl. Il Colle MM 65 NP
  4 Ragni  Marco 80 Dream Runners PG AM.TM NP
  118 Taddei Nazzareno 46 Satrini Group Trevi MM 65 NP
  25 Sfodera Marco 74 Pod. Corciano MM 35 RIT
Ordine d'arrivo generale femminile - km 11
Pos.  Pett. Cognome Nome Anno Societa' Categ. Tempo  Media
1 144 Nanu Ana 73 Gabbi Bologna MF 35 0:47:28 4,19
2 142 Enriquez Irene 77 Atl. Il Colle MF 35 0:48:01 4,22
3 155 Draoli Maria Cristina 64 Assisi Runners MF 45 0:49:23 4,29
4 174 Galbani Anna Maria 52 La Michetta (MI) MF 60 0:49:47 4,32
5 147 Krejci Susanne 72 Atl. Il Colle MF 40 0:50:01 4,33
6 150 Pappadŕ Roberta 68 Atl Avis Pg MF 40 0:50:17 4,34
7 158 Murasecco  Pierpaola 66 Atl Avis Pg MF 45 0:53:38 4,53
8 145 Piastra  Lorena 77 C.d.p. Trb Group MF 35 0:54:01 4,55
9 171 Lambertini Paola 57 Atl. 85 Faenza MF 55 0:54:05 4,55
10 148 Donnini Fabiola 72 Atl. Taino MF 40 0:54:20 4,56
11 146 Vichi Katiuscia 74 Pod. Corciano MF 35 0:54:22 4,57
12 151 Severini  Sarita 69 Lino Spagnoli MF 40 0:55:35 5,03
13 165 Picchio M. Luisa 62 Atl. Avis Pg MF 50 0:55:45 5,04
14 166 Strada  M. Teresa 58 G.P. Garlaschese (PV) MF 50 0:56:16 5,07
15 141 Rinaldi Laura 81 Pod. Corciano AM.TF 0:56:45 5,10
16 163 Basigli Ivana 62 Atl. Capanne MF 50 0:56:54 5,10
17 160 Staccioli Gabriela 64 A.P. Ponte Felcino MF 45 0:57:18 5,13
18 170 Danese M. Antonietta 53 G.S. Alpini (VI) MF 55 0:57:34 5,14
19 164 Campigotto Maria Teresa 61 Idealdoor S.Biagio (TV) MF 50 0:57:35 5,14
20 159 Palombi  Roberta 63 Atl Avis Pg MF 45 0:57:36 5,14
21 143 Munz  Dorothee 77 Atl. Il Colle MF 35 0:58:15 5,18
22 156 Falchetti  Anna Maria 66 C.d.p. Trb Group MF 45 0:58:42 5,20
23 176 Mattiolo Franca 48 Atl. Pavese MF 60 0:58:57 5,22
24 172 Tron Anita 55 Atl. Valpelice MF 55 0:58:59 5,22
25 157 Giorgetti  Claudia 66 Dream Runners PG MF 45 0:59:06 5,22
26 173 Bombardieri Mirka 52 Assindustria Rovigo MF 60 1:00:05 5,28
27 153 Anastasi Catia Lucia 64 Atl. Taino MF 45 1:00:22 5,29
28 167 Fabri Patrizia 60 Aspa Bastia MF 50 1:01:16 5,34
29 149 Massetti Monia 70 Lino Spagnoli MF 40 1:01:18 5,34
30 152 Agabiti Carolina 63 Amatori Podistica Terni MF 45 1:04:13 5,50
31 162 Vagnarelli Rema 64 Aspa Bastia MF 45 1:05:43 5,58
32 168 Anastasi Lydia Beatrice 57 Atl. Taino MF 55 1:06:28 6,03
33 175 Marcolin  Norina 50 G.P. Montebelluna MF 60 1:06:32 6,03
34 169 Cattelan Graziana 55 Idealdoor S.Biagio (TV) MF 55 1:06:43 6,04
35 178 Invernizzi  Carilla 47 G.P. Garlaschese (PV) MF 65 1:10:30 6,25
36 177 Poggi M. Rosa 50 US Scalo Voghera (PV) MF 60 1:10:32 6,25
37 179 Stringo  Irene 42 Atl. Pavese MF 65 1:16:16 6,56
38 180 Tartamelli Lina 46 Amatori Podistica Terni MF 65 1:19:27 7,13
39 161 Vaccarini  Patrizia 65 Amatori Podistica Terni MF 45 NP

------------------------------

------------------------------

------------------------------